Time;durP1;ratioP1;P1;durP2;ratioP2;P2;SDS_P1;SDS_P2;PMS_P1;PMS_P2;Temp;Humidity;BMP_temperature;BMP_pressure;BME280_temperature;BME280_humidity;BME280_pressure;Samples;Min_cycle;Max_cycle;Signal;HPM_P1;HPM_P2
2021/09/05 00:02:09;;;;;;;;;;;;;;;9.54;78.70;97602.38;116197;1181;68331;-67
2021/09/05 00:04:39;;;;;;;10.80;7.30;;;;;;;9.50;79.87;97605.60;116112;1184;68293;-65
2021/09/05 00:07:10;;;;;;;13.20;9.90;;;;;;;9.46;79.41;97605.45;116318;1181;59543;-69
2021/09/05 00:09:41;;;;;;;9.70;7.20;;;;;;;9.42;80.22;97605.53;116186;1179;59512;-67
2021/09/05 00:12:11;;;;;;;13.50;10.10;;;;;;;9.42;80.61;97610.28;116210;1181;71314;-67
2021/09/05 00:14:41;;;;;;;16.20;10.80;;;;;;;9.42;79.79;97606.80;116265;1181;68356;-68
2021/09/05 00:17:11;;;;;;;13.50;10.00;;;;;;;9.42;80.92;97606.27;116183;1181;68307;-67
2021/09/05 00:19:40;;;;;;;10.90;8.40;;;;;;;9.38;80.60;97606.70;116179;1181;59534;-66
2021/09/05 00:22:11;;;;;;;10.90;7.70;;;;;;;9.33;79.05;97612.05;116204;1178;59501;-68
2021/09/05 00:24:41;;;;;;;12.20;8.40;;;;;;;9.29;79.22;97613.70;116221;1181;71290;-67
2021/09/05 00:27:11;;;;;;;9.90;6.30;;;;;;;9.25;79.15;97612.96;116145;1182;68994;-69
2021/09/05 00:29:41;;;;;;;14.70;11.50;;;;;;;9.21;79.00;97612.80;116230;1178;69334;-69
2021/09/05 00:32:11;;;;;;;9.70;6.40;;;;;;;9.17;79.71;97614.11;116081;1182;59553;-68
2021/09/05 00:34:41;;;;;;;10.70;7.00;;;;;;;9.14;78.11;97615.16;116196;1178;59564;-68
2021/09/05 00:37:18;;;;;;;15.50;10.50;;;;;;;9.09;80.24;97617.60;116327;1181;70555;-69
2021/09/05 00:39:47;;;;;;;15.80;10.20;;;;;;;9.03;81.37;97616.41;116191;1181;68395;-69
2021/09/05 00:42:22;;;;;;;12.00;8.10;;;;;;;9.01;79.58;97617.05;116190;1182;69043;-64
2021/09/05 00:44:54;;;;;;;12.80;7.90;;;;;;;9.00;79.32;97612.45;116345;1178;59498;-70
2021/09/05 00:47:24;;;;;;;16.20;11.60;;;;;;;8.98;78.97;97617.58;116304;1181;59552;-69
2021/09/05 00:49:53;;;;;;;17.20;12.00;;;;;;;8.95;84.59;97620.58;116159;1182;70342;-69
2021/09/05 00:52:25;;;;;;;16.10;11.80;;;;;;;8.93;85.18;97620.66;116228;1181;68954;-68
2021/09/05 00:54:55;;;;;;;12.70;8.70;;;;;;;8.95;82.99;97623.19;116158;1182;68262;-72
2021/09/05 00:57:25;;;;;;;14.10;9.80;;;;;;;8.94;81.55;97623.94;116321;1181;59539;-69
2021/09/05 00:59:57;;;;;;;12.00;7.90;;;;;;;8.91;81.04;97621.69;116430;1177;59614;-66
2021/09/05 01:02:27;;;;;;;;;;;;;;;8.89;81.69;97620.78;116373;1181;70628;-67
2021/09/05 01:04:57;;;;;;;14.30;10.20;;;;;;;8.84;81.28;97620.03;116144;1179;69133;-69
2021/09/05 01:07:31;;;;;;;13.10;8.60;;;;;;;8.81;81.95;97624.57;116270;1181;69137;-69
2021/09/05 01:10:01;;;;;;;7.80;5.80;;;;;;;8.78;81.18;97623.72;116167;1181;59544;-69
2021/09/05 01:12:32;;;;;;;14.40;9.20;;;;;;;8.78;79.94;97621.30;116194;1182;59565;-66
2021/09/05 01:15:04;;;;;;;14.00;9.50;;;;;;;8.82;81.59;97621.73;116168;1179;71233;-69
2021/09/05 01:17:39;;;;;;;18.20;12.50;;;;;;;8.79;82.17;97623.15;116255;1181;69058;-70
2021/09/05 01:20:29;;;;;;;15.20;9.80;;;;;;;8.79;81.64;97627.33;116237;1182;69068;-68
2021/09/05 01:23:18;;;;;;;22.00;14.30;;;;;;;8.77;82.23;97631.42;116228;1181;59534;-69
2021/09/05 01:26:08;;;;;;;20.20;12.30;;;;;;;8.71;83.69;97634.27;116251;1182;59508;-67
2021/09/05 01:29:11;;;;;;;15.10;9.90;;;;;;;8.66;82.82;97635.20;116185;1178;71174;-70
2021/09/05 01:31:59;;;;;;;14.50;9.20;;;;;;;8.61;82.85;97635.35;116234;1184;69070;-68
2021/09/05 01:34:52;;;;;;;13.30;9.80;;;;;;;8.57;82.46;97634.39;116206;1182;69210;-67
2021/09/05 01:37:42;;;;;;;10.70;6.70;;;;;;;8.53;82.52;97637.76;116199;1182;59591;-67
2021/09/05 01:40:35;;;;;;;13.10;8.60;;;;;;;8.49;81.53;97636.60;116246;1182;59550;-68
2021/09/05 01:43:08;;;;;;;11.10;9.40;;;;;;;8.47;81.65;97637.30;116311;1182;70776;-68
2021/09/05 01:45:58;;;;;;;14.10;10.50;;;;;;;8.43;82.16;97636.45;116148;1182;68473;-70
2021/09/05 01:48:48;;;;;;;;;;;;;;;8.39;83.65;97637.77;116177;1183;68395;-67
2021/09/05 01:51:42;;;;;;;17.80;10.50;;;;;;;8.35;83.81;97634.48;116044;1182;59667;-66
2021/09/05 01:54:31;;;;;;;23.20;15.30;;;;;;;8.31;86.72;97634.20;116182;1179;59501;-69
2021/09/05 01:57:34;;;;;;;23.40;15.90;;;;;;;8.31;87.72;97636.09;116091;1181;70565;-65
2021/09/05 02:00:43;;;;;;;13.60;8.50;;;;;;;8.33;86.21;97639.83;115915;1184;68436;-69
2021/09/05 02:03:47;;;;;;;10.40;6.70;;;;;;;8.30;83.93;97642.08;115898;1184;68760;-69
2021/09/05 02:06:33;;;;;;;10.90;6.40;;;;;;;8.26;83.21;97642.65;116248;1178;59553;-68
2021/09/05 02:09:23;;;;;;;12.20;8.50;;;;;;;8.24;82.41;97642.13;116310;1181;59545;-69
2021/09/05 02:12:22;;;;;;;10.40;6.70;;;;;;;8.19;81.86;97643.25;116436;1181;70743;-69
2021/09/05 02:15:09;;;;;;;13.10;7.20;;;;;;;8.15;81.45;97642.26;116286;1181;69216;-67
2021/09/05 02:17:58;;;;;;;12.10;7.90;;;;;;;8.13;81.58;97644.14;116103;1182;68563;-68
2021/09/05 02:20:37;;;;;;;10.40;7.00;;;;;;;8.10;81.49;97648.67;116188;1181;59540;-67
2021/09/05 02:23:24;;;;;;;9.90;7.10;;;;;;;8.07;81.43;97650.04;116265;1182;59536;-66
2021/09/05 02:26:05;;;;;;;14.50;9.30;;;;;;;8.04;82.20;97645.38;116376;1182;70588;-69
2021/09/05 02:28:51;;;;;;;11.90;7.40;;;;;;;8.02;82.06;97651.05;116166;1182;68926;-67
2021/09/05 02:31:41;;;;;;;12.70;8.90;;;;;;;8.00;82.00;97651.84;116160;1178;68419;-66
2021/09/05 02:34:37;;;;;;;18.60;13.20;;;;;;;7.99;84.47;97650.33;116327;1182;59610;-67
2021/09/05 02:37:20;;;;;;;16.50;11.20;;;;;;;7.97;84.32;97650.80;116291;1178;59540;-68
2021/09/05 02:39:59;;;;;;;10.40;6.00;;;;;;;7.96;83.58;97652.79;116223;1178;69464;-66
2021/09/05 02:42:55;;;;;;;9.30;6.30;;;;;;;7.94;82.81;97649.41;116303;1178;68413;-69
2021/09/05 02:45:58;;;;;;;13.50;10.30;;;;;;;7.92;82.34;97650.92;116235;1182;69544;-67
2021/09/05 02:48:50;;;;;;;11.50;8.80;;;;;;;7.90;83.15;97656.25;116274;1182;59504;-69
2021/09/05 02:51:35;;;;;;;16.20;10.20;;;;;;;7.87;82.36;97655.37;116327;1181;59556;-69
2021/09/05 02:54:31;;;;;;;12.80;9.90;;;;;;;7.85;82.13;97652.21;116184;1181;71164;-70
2021/09/05 02:57:25;;;;;;;15.70;10.90;;;;;;;7.82;82.35;97649.05;116283;1178;68277;-67
2021/09/05 03:00:09;;;;;;;15.20;10.40;;;;;;;7.81;83.61;97648.97;116364;1182;69182;-69
2021/09/05 03:03:02;;;;;;;12.20;9.50;;;;;;;7.79;83.16;97649.22;116083;1184;59541;-68
2021/09/05 03:06:09;;;;;;;13.90;9.70;;;;;;;7.79;83.06;97650.66;115901;1184;59587;-69
2021/09/05 03:09:03;;;;;;;18.20;13.00;;;;;;;7.78;83.96;97652.30;116129;1182;70689;-68
2021/09/05 03:11:56;;;;;;;12.90;8.90;;;;;;;7.75;84.62;97655.94;116132;1182;68442;-66
2021/09/05 03:14:53;;;;;;;12.10;8.10;;;;;;;7.68;84.18;97658.89;116176;1178;69117;-68
2021/09/05 03:17:59;;;;;;;10.50;7.90;;;;;;;7.63;82.43;97660.38;115972;1185;59634;-69
2021/09/05 03:20:47;;;;;;;11.30;8.50;;;;;;;7.59;81.99;97665.48;116146;1181;59530;-69
2021/09/05 03:23:36;;;;;;;16.60;9.60;;;;;;;7.54;82.07;97665.77;116074;1180;70527;-68
2021/09/05 03:26:30;;;;;;;11.60;9.40;;;;;;;7.51;81.35;97669.77;116243;1181;68425;-68
2021/09/05 03:29:34;;;;;;;11.40;8.00;;;;;;;7.46;81.63;97675.06;116271;1182;68567;-69
2021/09/05 03:32:18;;;;;;;9.90;8.20;;;;;;;7.44;81.10;97676.06;116145;1182;59967;-69
2021/09/05 03:35:24;;;;;;;13.00;9.30;;;;;;;7.41;81.27;97680.90;115786;1184;59662;-66
2021/09/05 03:38:23;;;;;;;17.60;12.10;;;;;;;7.38;84.15;97682.77;116291;1177;71324;-68
2021/09/05 03:41:14;;;;;;;16.80;12.30;;;;;;;7.34;84.76;97682.30;116266;1183;69932;-69
2021/09/05 03:44:15;;;;;;;11.80;8.50;;;;;;;7.30;83.49;97688.80;116166;1184;69198;-68
2021/09/05 03:47:04;;;;;;;8.30;5.40;;;;;;;7.26;82.36;97693.66;116127;1184;59544;-69
2021/09/05 03:49:50;;;;;;;11.60;8.90;;;;;;;7.23;82.33;97696.62;116165;1182;59585;-69
2021/09/05 03:52:21;;;;;;;13.40;9.20;;;;;;;7.19;82.64;97698.91;116101;1183;70528;-68
2021/09/05 03:54:52;;;;;;;15.10;10.20;;;;;;;7.16;82.71;97702.21;116120;1182;68456;-69
2021/09/05 03:57:23;;;;;;;7.90;5.60;;;;;;;7.13;83.33;97707.20;116130;1182;68444;-65
2021/09/05 03:59:54;;;;;;;13.00;8.60;;;;;;;7.15;81.60;97704.33;116078;1183;59586;-68
2021/09/05 04:02:25;;;;;;;14.30;10.50;;;;;;;7.19;81.85;97706.88;116086;1184;59586;-69
2021/09/05 04:04:55;;;;;;;12.00;9.10;;;;;;;7.24;82.76;97706.96;116175;1178;71275;-68
2021/09/05 04:07:25;;;;;;;12.90;9.00;;;;;;;7.23;83.34;97709.95;116092;1183;68399;-69
2021/09/05 04:10:10;;;;;;;21.70;12.10;;;;;;;7.20;85.03;97713.62;116165;1182;69420;-67
2021/09/05 04:12:43;;;;;;;11.00;8.00;;;;;;;7.17;84.95;97720.52;116280;1181;59546;-68
2021/09/05 04:15:12;;;;;;;10.30;8.70;;;;;;;7.18;83.49;97721.52;116236;1178;59613;-69
2021/09/05 04:17:42;;;;;;;10.90;8.00;;;;;;;7.21;83.78;97722.39;116063;1183;71792;-68
2021/09/05 04:20:12;;;;;;;8.90;6.80;;;;;;;7.26;83.29;97728.52;116275;1181;68618;-68
2021/09/05 04:22:42;;;;;;;;;;;;;;;7.34;82.75;97729.14;116265;1182;68434;-69
2021/09/05 04:25:12;;;;;;;11.30;9.70;;;;;;;7.41;83.41;97725.82;116021;1179;59540;-68
2021/09/05 04:27:42;;;;;;;8.60;6.50;;;;;;;7.50;82.94;97728.41;116108;1183;59559;-68
2021/09/05 04:30:12;;;;;;;8.60;6.10;;;;;;;7.64;82.62;97727.95;116186;1182;70352;-68
2021/09/05 04:32:43;;;;;;;34.90;13.90;;;;;;;7.76;83.04;97730.06;116178;1182;68411;-68
2021/09/05 04:35:13;;;;;;;26.00;15.30;;;;;;;7.83;85.45;97732.46;116093;1183;68265;-69
2021/09/05 04:37:43;;;;;;;21.90;14.70;;;;;;;7.91;85.02;97737.05;116138;1181;59622;-66
2021/09/05 04:40:13;;;;;;;48.60;32.30;;;;;;;8.01;84.10;97743.98;116354;1181;59506;-68
2021/09/05 04:42:43;;;;;;;43.00;29.10;;;;;;;8.13;84.57;97743.61;116148;1182;71353;-66
2021/09/05 04:45:13;;;;;;;70.40;44.40;;;;;;;8.33;83.73;97749.05;116384;1181;68344;-70
2021/09/05 04:47:43;;;;;;;55.10;34.90;;;;;;;8.63;83.40;97751.32;116371;1181;69096;-68
2021/09/05 04:50:12;;;;;;;49.00;33.40;;;;;;;8.98;82.99;97741.89;116410;1178;59609;-67
2021/09/05 04:52:42;;;;;;;36.40;22.60;;;;;;;9.35;82.54;97748.98;116486;1182;59533;-66
2021/09/05 04:55:12;;;;;;;33.80;23.60;;;;;;;9.73;81.77;97757.05;116465;1182;71260;-69
2021/09/05 04:57:42;;;;;;;26.90;17.60;;;;;;;9.98;80.02;97756.67;116448;1181;69107;-69
2021/09/05 05:00:12;;;;;;;16.30;12.30;;;;;;;10.10;79.67;97757.98;116436;1181;68416;-66
2021/09/05 05:02:41;;;;;;;21.60;15.70;;;;;;;10.36;79.98;97757.16;116424;1180;59592;-68
2021/09/05 05:05:11;;;;;;;10.60;8.40;;;;;;;10.61;78.21;97755.30;116372;1181;59543;-69
2021/09/05 05:07:41;;;;;;;;;;;;;;;10.83;77.48;97758.70;116473;1182;71391;-68
2021/09/05 05:10:10;;;;;;;11.60;9.20;;;;;;;10.93;75.37;97756.95;116476;1181;69303;-68
2021/09/05 05:12:40;;;;;;;16.10;9.20;;;;;;;11.16;76.01;97758.48;116430;1181;69115;-69
2021/09/05 05:15:10;;;;;;;12.10;9.80;;;;;;;11.43;75.04;97756.98;116226;1180;59555;-66
2021/09/05 05:17:39;;;;;;;14.20;11.00;;;;;;;11.72;73.55;97757.00;116213;1181;59605;-66
2021/09/05 05:20:11;;;;;;;11.80;9.50;;;;;;;11.91;72.75;97759.09;116173;1183;71730;-66
2021/09/05 05:22:40;;;;;;;10.40;8.20;;;;;;;12.10;73.99;97756.48;116166;1178;68411;-70
2021/09/05 05:25:11;;;;;;;11.60;9.00;;;;;;;12.40;73.81;97760.92;116290;1178;69219;-67
2021/09/05 05:27:40;;;;;;;12.80;9.60;;;;;;;12.56;71.65;97761.46;116345;1181;59556;-68
2021/09/05 05:30:09;;;;;;;11.60;9.60;;;;;;;12.85;71.70;97761.70;116315;1180;59597;-66
2021/09/05 05:32:38;;;;;;;11.30;7.90;;;;;;;13.25;72.85;97762.99;116328;1181;71445;-66
2021/09/05 05:35:08;;;;;;;10.00;8.60;;;;;;;13.80;70.22;97764.48;116149;1181;69538;-67
2021/09/05 05:37:37;;;;;;;;;;;;;;;14.35;69.32;97767.88;116194;1181;68256;-65
2021/09/05 05:40:08;;;;;;;9.20;6.90;;;;;;;14.78;67.53;97768.01;116160;1178;59540;-68
2021/09/05 05:42:37;;;;;;;8.80;6.40;;;;;;;15.15;66.67;97767.09;116252;1180;59545;-65
2021/09/05 05:45:07;;;;;;;8.50;6.80;;;;;;;15.55;67.52;97772.63;116132;1179;70420;-71
2021/09/05 05:47:37;;;;;;;8.50;7.30;;;;;;;16.02;66.06;97773.28;116356;1181;68800;-68
2021/09/05 05:50:06;;;;;;;13.80;10.40;;;;;;;16.44;61.18;97772.27;116283;1182;69092;-69
2021/09/05 05:52:37;;;;;;;;;;;;;;;16.70;62.14;97772.39;116170;1182;59552;-69
2021/09/05 05:55:07;;;;;;;7.90;6.40;;;;;;;17.01;60.67;97775.02;116187;1181;59569;-68
2021/09/05 05:57:37;;;;;;;9.40;7.70;;;;;;;17.44;57.87;97777.09;116362;1178;71315;-68
2021/09/05 06:00:07;;;;;;;9.50;7.30;;;;;;;17.72;58.38;97779.69;116300;1181;68255;-67
2021/09/05 06:02:40;;;;;;;8.00;6.80;;;;;;;18.11;56.90;97776.75;116294;1182;69028;-70
2021/09/05 06:05:10;;;;;;;11.10;8.20;;;;;;;18.48;55.82;97778.05;116319;1178;59542;-70
2021/09/05 06:07:39;;;;;;;11.60;7.90;;;;;;;18.41;52.84;97778.77;116313;1182;59505;-66
2021/09/05 06:10:08;;;;;;;8.30;7.40;;;;;;;18.36;53.28;97774.00;116382;1178;70368;-68
2021/09/05 06:12:38;;;;;;;9.50;6.50;;;;;;;18.47;54.51;97772.21;116205;1182;68469;-71
2021/09/05 06:15:07;;;;;;;8.60;7.70;;;;;;;18.94;56.53;97771.77;116336;1181;69265;-68
2021/09/05 06:17:37;;;;;;;8.60;7.10;;;;;;;19.41;53.95;97771.12;116403;1181;59527;-66
2021/09/05 06:20:07;;;;;;;;;;;;;;;19.89;53.76;97774.16;116341;1181;59539;-66
2021/09/05 06:22:37;;;;;;;7.20;6.40;;;;;;;20.25;51.28;97773.85;116215;1182;71070;-66
2021/09/05 06:25:07;;;;;;;9.30;6.70;;;;;;;20.72;49.83;97778.20;116246;1182;69122;-66
2021/09/05 06:27:37;;;;;;;6.50;5.30;;;;;;;21.15;50.38;97773.45;116184;1181;68398;-67
2021/09/05 06:30:07;;;;;;;8.80;7.80;;;;;;;21.14;48.55;97771.66;116177;1181;59534;-71
2021/09/05 06:32:36;;;;;;;9.70;8.00;;;;;;;20.73;47.86;97777.92;116340;1178;59540;-69
2021/09/05 06:35:06;;;;;;;8.30;6.60;;;;;;;20.52;47.84;97783.02;116335;1182;71376;-66
2021/09/05 06:37:38;;;;;;;7.50;6.00;;;;;;;20.21;48.82;97784.71;116183;1181;69095;-66
2021/09/05 06:40:08;;;;;;;;;;;;;;;20.66;48.77;97789.27;116199;1182;69321;-67
2021/09/05 06:42:37;;;;;;;8.30;7.00;;;;;;;20.88;47.70;97785.81;116163;1182;59559;-66
2021/09/05 06:45:07;;;;;;;8.20;6.20;;;;;;;20.69;47.60;97793.59;116217;1181;59501;-68
2021/09/05 06:47:37;;;;;;;9.10;6.50;;;;;;;20.14;48.73;97796.98;116246;1182;70556;-66
2021/09/05 06:50:06;;;;;;;;;;;;;;;20.12;49.21;97800.04;116179;1182;68990;-68
2021/09/05 06:52:35;;;;;;;;;;;;;;;19.85;49.40;97799.00;116248;1182;69264;-70
2021/09/05 06:55:05;;;;;;;8.20;5.50;;;;;;;20.25;49.55;97802.85;116444;1178;59922;-66
2021/09/05 06:57:36;;;;;;;8.20;6.60;;;;;;;20.44;48.06;97801.36;116265;1181;59463;-67
2021/09/05 07:00:06;;;;;;;8.40;6.40;;;;;;;20.59;47.41;97800.66;116299;1178;70907;-66
2021/09/05 07:02:36;;;;;;;6.90;5.90;;;;;;;20.94;46.61;97802.95;116138;1183;67953;-65
2021/09/05 07:05:06;;;;;;;;;;;;;;;21.34;47.37;97803.79;116243;1183;69324;-65
2021/09/05 07:07:44;;;;;;;6.50;4.80;;;;;;;21.88;45.80;97801.34;116208;1181;59511;-68
2021/09/05 07:10:13;;;;;;;6.20;5.30;;;;;;;22.46;44.74;97804.98;116333;1181;59518;-69
2021/09/05 07:12:44;;;;;;;6.70;5.80;;;;;;;22.71;43.66;97806.05;116346;1181;71351;-66
2021/09/05 07:15:13;;;;;;;7.00;6.00;;;;;;;22.41;43.26;97806.37;116329;1181;68359;-66
2021/09/05 07:17:42;;;;;;;6.50;4.40;;;;;;;20.94;46.25;97807.16;116311;1182;68321;-69
2021/09/05 07:20:12;;;;;;;6.10;4.30;;;;;;;21.40;45.39;97811.52;116326;1178;59535;-70
2021/09/05 07:22:42;;;;;;;8.10;6.40;;;;;;;21.42;45.94;97812.36;116315;1181;59546;-66
2021/09/05 07:25:12;;;;;;;7.50;6.10;;;;;;;21.05;46.47;97817.98;116334;1181;70457;-66
2021/09/05 07:27:41;;;;;;;8.10;5.90;;;;;;;21.05;47.21;97822.81;116384;1181;68996;-66
2021/09/05 07:30:11;;;;;;;6.30;4.10;;;;;;;21.20;47.32;97821.73;116318;1178;68491;-67
2021/09/05 07:32:41;;;;;;;7.40;5.60;;;;;;;20.92;47.70;97827.11;116308;1178;59595;-66
2021/09/05 07:35:10;;;;;;;;;;;;;;;20.29;48.98;97831.29;116474;1182;59497;-66
2021/09/05 07:37:45;;;;;;;5.90;5.30;;;;;;;20.26;49.27;97828.73;116307;1178;70682;-66
2021/09/05 07:40:16;;;;;;;5.60;4.70;;;;;;;20.19;49.37;97827.80;116363;1181;69246;-70
2021/09/05 07:42:45;;;;;;;7.50;5.80;;;;;;;20.43;48.65;97826.11;116370;1177;69055;-69
2021/09/05 07:45:18;;;;;;;6.80;5.20;;;;;;;20.51;49.15;97827.19;116276;1178;59554;-69
2021/09/05 07:47:47;;;;;;;7.30;5.80;;;;;;;20.53;48.51;97829.26;116454;1181;59508;-68
2021/09/05 07:50:16;;;;;;;9.80;6.00;;;;;;;20.14;49.37;97831.85;116229;1178;72042;-66
2021/09/05 07:52:45;;;;;;;7.50;5.70;;;;;;;19.97;50.15;97834.87;116310;1178;69240;-69
2021/09/05 07:55:14;;;;;;;7.50;6.20;;;;;;;20.12;50.00;97836.29;116318;1181;69899;-69
2021/09/05 07:57:43;;;;;;;8.00;5.50;;;;;;;19.83;50.66;97834.89;116316;1181;59540;-70
2021/09/05 08:00:13;;;;;;;8.90;5.70;;;;;;;19.74;50.85;97836.66;116286;1181;59461;-67
2021/09/05 08:02:42;;;;;;;7.10;5.20;;;;;;;19.78;51.05;97838.95;116317;1181;71445;-69
2021/09/05 08:05:11;;;;;;;6.70;4.80;;;;;;;20.39;49.84;97844.30;116290;1178;68521;-69
2021/09/05 08:07:41;;;;;;;7.10;5.90;;;;;;;20.77;48.57;97848.69;116281;1181;67930;-69
2021/09/05 08:10:10;;;;;;;6.50;4.80;;;;;;;20.66;48.08;97847.21;116318;1182;59475;-64
2021/09/05 08:12:39;;;;;;;5.80;3.80;;;;;;;21.12;46.98;97850.05;116321;1181;59491;-71
2021/09/05 08:15:09;;;;;;;5.10;3.40;;;;;;;21.79;46.28;97843.31;116328;1182;71128;-66
2021/09/05 08:17:38;;;;;;;6.10;4.90;;;;;;;22.38;44.56;97843.60;116340;1181;69292;-66
2021/09/05 08:20:08;;;;;;;7.20;5.50;;;;;;;22.39;44.45;97842.95;116293;1182;69221;-66
2021/09/05 08:22:37;;;;;;;6.90;4.60;;;;;;;22.44;44.55;97844.69;116308;1181;59546;-70
2021/09/05 08:25:06;;;;;;;;;;;;;;;22.88;43.21;97848.34;116306;1182;59521;-72
2021/09/05 08:27:35;;;;;;;5.80;3.90;;;;;;;23.50;43.00;97850.23;116382;1181;70592;-69
2021/09/05 08:30:05;;;;;;;5.10;3.70;;;;;;;24.27;43.03;97851.14;116318;1182;69043;-67
2021/09/05 08:32:34;;;;;;;5.30;3.50;;;;;;;25.13;42.29;97851.38;116332;1181;68616;-66
2021/09/05 08:35:04;;;;;;;5.70;3.50;;;;;;;25.93;39.69;97847.51;116306;1181;59539;-70
2021/09/05 08:37:33;;;;;;;6.00;4.00;;;;;;;26.28;37.27;97850.17;116319;1180;59539;-71
2021/09/05 08:40:03;;;;;;;5.00;3.70;;;;;;;26.70;37.64;97849.16;116329;1180;71194;-68
2021/09/05 08:42:34;;;;;;;5.10;4.50;;;;;;;27.02;36.89;97846.79;116314;1181;68941;-71
2021/09/05 08:45:06;;;;;;;5.80;4.10;;;;;;;26.83;35.02;97843.13;116323;1181;69361;-69
2021/09/05 08:47:36;;;;;;;5.00;4.00;;;;;;;26.91;35.49;97838.67;116334;1178;59499;-66
2021/09/05 08:50:06;;;;;;;5.10;4.40;;;;;;;27.21;36.46;97840.98;116164;1181;59501;-71
2021/09/05 08:52:37;;;;;;;5.20;4.00;;;;;;;27.58;34.90;97840.51;116268;1177;70598;-70
2021/09/05 08:55:07;;;;;;;4.90;4.00;;;;;;;28.09;32.58;97838.27;116195;1181;69327;-72
2021/09/05 08:57:36;;;;;;;6.00;5.10;;;;;;;27.93;32.58;97838.16;116321;1181;69328;-69
2021/09/05 09:00:06;;;;;;;4.80;4.10;;;;;;;27.64;32.93;97838.02;116337;1182;59469;-66
2021/09/05 09:02:46;;;;;;;5.60;4.40;;;;;;;28.05;32.78;97837.04;116343;1182;59809;-67
2021/09/05 09:05:41;;;;;;;6.00;4.30;;;;;;;28.12;32.51;97832.71;116307;1181;70529;-70
2021/09/05 09:08:14;;;;;;;6.00;4.50;;;;;;;28.07;32.35;97838.77;116344;1177;68478;-70
2021/09/05 09:10:50;;;;;;;5.70;4.60;;;;;;;28.31;32.35;97836.11;116370;1182;67929;-70
2021/09/05 09:13:40;;;;;;;6.50;4.80;;;;;;;28.73;31.72;97838.06;116336;1182;59542;-70
2021/09/05 09:16:11;;;;;;;5.70;4.20;;;;;;;27.89;31.58;97840.33;116317;1178;59517;-67
2021/09/05 09:18:42;;;;;;;6.00;5.20;;;;;;;28.17;31.62;97840.30;116358;1181;71316;-70
2021/09/05 09:21:18;;;;;;;5.70;4.30;;;;;;;27.82;32.43;97837.28;116337;1181;70111;-67
2021/09/05 09:23:49;;;;;;;5.80;4.90;;;;;;;28.35;32.18;97838.46;116353;1182;69190;-71
2021/09/05 09:26:18;;;;;;;5.60;4.20;;;;;;;28.78;31.22;97837.64;116295;1181;59549;-70
2021/09/05 09:28:49;;;;;;;6.80;4.50;;;;;;;28.42;31.75;97836.02;116290;1177;59531;-67
2021/09/05 09:31:26;;;;;;;5.30;4.20;;;;;;;28.16;31.97;97833.23;116364;1181;71461;-69
2021/09/05 09:33:59;;;;;;;5.00;4.40;;;;;;;28.08;32.18;97828.85;116295;1181;68477;-71
2021/09/05 09:36:31;;;;;;;8.30;5.20;;;;;;;28.35;31.89;97831.48;116268;1182;69091;-67
2021/09/05 09:39:05;;;;;;;5.20;4.30;;;;;;;28.47;31.88;97834.80;116221;1183;59519;-71
2021/09/05 09:41:40;;;;;;;6.50;5.80;;;;;;;28.98;32.01;97835.48;116591;1181;59523;-69
2021/09/05 09:44:13;;;;;;;7.20;5.90;;;;;;;28.91;31.39;97836.06;116309;1182;71027;-70
2021/09/05 09:46:45;;;;;;;6.70;5.60;;;;;;;28.00;32.21;97829.04;116327;1181;68400;-69
2021/09/05 09:49:15;;;;;;;6.50;5.80;;;;;;;28.01;32.19;97829.98;116306;1183;69652;-71
2021/09/05 09:51:44;;;;;;;;;;;;;;;27.85;33.24;97830.15;116274;1182;59494;-68
2021/09/05 09:54:13;;;;;;;6.90;5.40;;;;;;;28.28;32.98;97829.93;116332;1178;59598;-69
2021/09/05 09:56:43;;;;;;;7.00;5.90;;;;;;;28.23;32.59;97829.91;116334;1181;71361;-67
2021/09/05 09:59:12;;;;;;;7.80;5.60;;;;;;;28.02;32.50;97826.16;116386;1178;69232;-69
2021/09/05 10:01:45;;;;;;;5.60;4.70;;;;;;;28.61;32.29;97825.29;116338;1177;67491;-67
2021/09/05 10:04:15;;;;;;;8.00;5.30;;;;;;;29.36;32.05;97827.14;116326;1178;59497;-67
2021/09/05 10:06:44;;;;;;;7.30;5.90;;;;;;;30.11;31.21;97819.86;116333;1178;59518;-68
2021/09/05 10:09:15;;;;;;;8.20;6.10;;;;;;;30.55;30.02;97824.81;116333;1182;71448;-66
2021/09/05 10:11:44;;;;;;;7.50;6.30;;;;;;;29.89;28.80;97820.91;116361;1181;69128;-68
2021/09/05 10:14:14;;;;;;;5.40;4.50;;;;;;;29.43;29.75;97818.33;116322;1178;68462;-71
2021/09/05 10:16:43;;;;;;;5.60;4.90;;;;;;;30.31;29.16;97822.98;116377;1181;59543;-72
2021/09/05 10:19:13;;;;;;;;;;;;;;;30.84;28.37;97818.94;116355;1180;59559;-67
2021/09/05 10:21:42;;;;;;;6.10;5.00;;;;;;;30.65;27.48;97818.88;116344;1181;71288;-71
2021/09/05 10:24:17;;;;;;;5.80;5.20;;;;;;;31.21;28.03;97820.91;116302;1181;68403;-72
2021/09/05 10:27:04;;;;;;;9.50;8.30;;;;;;;31.34;27.29;97818.44;116329;1181;68360;-68
2021/09/05 10:29:34;;;;;;;5.40;4.60;;;;;;;32.22;26.31;97817.86;116331;1182;59521;-69
2021/09/05 10:32:03;;;;;;;5.90;5.00;;;;;;;32.69;26.21;97821.20;116332;1179;59533;-68
2021/09/05 10:34:37;;;;;;;37.30;32.80;;;;;;;33.26;24.95;97819.56;116340;1178;71450;-68
2021/09/05 10:37:13;;;;;;;29.40;23.60;;;;;;;33.33;24.41;97820.66;116585;1181;69184;-67
2021/09/05 10:40:08;;;;;;;25.30;19.90;;;;;;;33.66;23.94;97820.83;116404;1181;69302;-69
2021/09/05 10:42:59;;;;;;;5.60;4.70;;;;;;;33.84;22.69;97818.00;116320;1181;59552;-68
2021/09/05 10:45:29;;;;;;;6.40;5.00;;;;;;;34.00;23.07;97816.21;116390;1181;59534;-68
2021/09/05 10:47:58;;;;;;;4.70;3.80;;;;;;;33.98;22.84;97818.23;116347;1182;71421;-70
2021/09/05 10:50:38;;;;;;;8.20;6.20;;;;;;;34.28;22.95;97816.05;116328;1181;68276;-71
2021/09/05 10:53:23;;;;;;;33.30;26.40;;;;;;;34.73;21.97;97815.02;116328;1181;68875;-70
2021/09/05 10:56:03;;;;;;;14.70;11.90;;;;;;;35.26;21.75;97817.44;116364;1181;59536;-69
2021/09/05 10:58:45;;;;;;;6.10;5.40;;;;;;;35.70;20.81;97817.38;116360;1181;59516;-67
2021/09/05 11:01:27;;;;;;;5.00;4.30;;;;;;;35.61;19.51;97812.39;116308;1182;71230;-70
2021/09/05 11:04:12;;;;;;;7.60;5.00;;;;;;;35.93;20.05;97809.19;116355;1181;68668;-68
2021/09/05 11:06:53;;;;;;;5.60;4.30;;;;;;;36.37;19.67;97808.06;116323;1181;69256;-69
2021/09/05 11:09:23;;;;;;;4.60;4.10;;;;;;;36.63;19.09;97804.74;116316;1182;59533;-70
2021/09/05 11:12:23;;;;;;;5.10;4.10;;;;;;;36.85;18.78;97808.86;116366;1182;59538;-72
2021/09/05 11:14:53;;;;;;;7.10;5.80;;;;;;;37.05;18.70;97807.91;116370;1182;71376;-68
2021/09/05 11:17:33;;;;;;;6.00;4.20;;;;;;;37.04;18.46;97808.28;116359;1182;69293;-72
2021/09/05 11:20:06;;;;;;;6.40;5.40;;;;;;;36.88;18.41;97804.07;116375;1181;69196;-76
2021/09/05 11:22:38;;;;;;;6.80;5.50;;;;;;;36.71;18.38;97801.21;116346;1182;59530;-70
2021/09/05 11:25:15;;;;;;;6.00;4.90;;;;;;;36.93;17.23;97799.34;116372;1179;59535;-74
2021/09/05 11:27:55;;;;;;;6.30;4.80;;;;;;;36.78;17.70;97797.20;116347;1182;71498;-68
2021/09/05 11:30:33;;;;;;;6.50;5.70;;;;;;;35.69;18.10;97792.58;116296;1182;68854;-74
2021/09/05 11:33:05;;;;;;;4.00;3.60;;;;;;;35.25;18.09;97791.03;116321;1181;69267;-69
2021/09/05 11:35:41;;;;;;;5.30;4.50;;;;;;;35.45;17.41;97790.80;116321;1178;59550;-72
2021/09/05 11:38:14;;;;;;;5.00;4.10;;;;;;;35.54;18.58;97788.09;116270;1183;59510;-71
2021/09/05 11:40:49;;;;;;;48.50;41.10;;;;;;;34.88;19.09;97786.70;116345;1183;71648;-71
2021/09/05 11:43:38;;;;;;;10.80;9.70;;;;;;;34.02;20.15;97783.17;116355;1182;68331;-72
2021/09/05 11:46:13;;;;;;;9.60;8.60;;;;;;;32.95;21.13;97786.89;116364;1181;69120;-69
2021/09/05 11:48:54;;;;;;;14.80;13.30;;;;;;;32.30;21.79;97783.80;116378;1181;59508;-69
2021/09/05 11:51:25;;;;;;;6.20;4.80;;;;;;;32.76;21.13;97783.25;116335;1181;59604;-71
2021/09/05 11:54:01;;;;;;;6.40;4.30;;;;;;;32.85;20.15;97779.62;116330;1178;71327;-72
2021/09/05 11:56:32;;;;;;;8.00;6.60;;;;;;;32.26;20.45;97777.63;116345;1182;68343;-73
2021/09/05 11:59:19;;;;;;;6.90;5.60;;;;;;;30.18;23.12;97773.65;116322;1178;69298;-72
2021/09/05 12:01:50;;;;;;;6.30;5.60;;;;;;;31.14;22.72;97775.91;116351;1181;59570;-69
2021/09/05 12:04:22;;;;;;;5.90;5.30;;;;;;;31.76;21.86;97773.86;116333;1178;59621;-70
2021/09/05 12:06:52;;;;;;;6.30;4.90;;;;;;;32.53;21.43;97771.04;116274;1181;70398;-69